Time;durP1;ratioP1;P1;durP2;ratioP2;P2;SDS_P1;SDS_P2;PMS_P1;PMS_P2;Temp;Humidity;BMP_temperature;BMP_pressure;BME280_temperature;BME280_humidity;BME280_pressure;Samples;Min_cycle;Max_cycle;Signal;HPM_P1;HPM_P2
2022/12/19 00:01:38;;;;;;;14.93;7.90;;;1.00;1.00;;;;;;5090496;28;20595;-77
2022/12/19 00:04:07;;;;;;;19.93;8.67;;;1.10;1.00;;;;;;5089468;28;20445;-76
2022/12/19 00:06:33;;;;;;;21.90;8.90;;;1.10;99.90;;;;;;5089347;28;20457;-75
2022/12/19 00:09:02;;;;;;;18.13;8.93;;;1.10;99.90;;;;;;5082031;28;20467;-75
2022/12/19 00:11:29;;;;;;;19.93;8.33;;;1.20;99.90;;;;;;5077686;28;20547;-76
2022/12/19 00:13:57;;;;;;;22.73;10.30;;;1.20;99.90;;;;;;5080954;28;20939;-77
2022/12/19 00:16:26;;;;;;;12.83;7.50;;;1.20;22.30;;;;;;5089446;28;20445;-76
2022/12/19 00:18:55;;;;;;;19.40;9.97;;;1.20;71.50;;;;;;5089367;28;20567;-75
2022/12/19 00:21:23;;;;;;;11.27;7.63;;;1.10;99.90;;;;;;5089699;28;20477;-76
2022/12/19 00:23:50;;;;;;;24.63;9.60;;;1.00;99.90;;;;;;5086968;28;20479;-71
2022/12/19 00:26:21;;;;;;;16.43;6.23;;;1.00;99.90;;;;;;5087199;28;20449;-76
2022/12/19 00:28:50;;;;;;;29.43;9.63;;;0.90;99.90;;;;;;5086512;28;20951;-76
2022/12/19 00:31:19;;;;;;;19.73;9.70;;;0.90;93.30;;;;;;5090152;28;20567;-77
2022/12/19 00:33:46;;;;;;;16.27;9.67;;;0.90;18.20;;;;;;5089805;28;20460;-77
2022/12/19 00:36:14;;;;;;;15.23;7.27;;;0.80;1.00;;;;;;5084612;28;20455;-77
2022/12/19 00:38:44;;;;;;;19.17;10.40;;;0.90;1.00;;;;;;5089414;28;20471;-77
2022/12/19 00:41:13;;;;;;;15.33;8.30;;;0.90;1.00;;;;;;5089728;28;20483;-77
2022/12/19 00:43:42;;;;;;;14.13;6.60;;;0.80;1.30;;;;;;5093001;28;20448;-77
2022/12/19 00:46:11;;;;;;;21.70;9.27;;;0.90;1.00;;;;;;5079158;28;20713;-77
2022/12/19 00:48:38;;;;;;;19.10;10.97;;;0.80;24.90;;;;;;5089513;28;20494;-76
2022/12/19 00:51:07;;;;;;;11.07;7.27;;;0.90;1.00;;;;;;5073229;28;20910;-77
2022/12/19 00:53:34;;;;;;;20.77;8.33;;;0.80;1.00;;;;;;5089935;28;20830;-77
2022/12/19 00:56:02;;;;;;;22.93;9.17;;;0.70;1.00;;;;;;5084994;28;20448;-76
2022/12/19 00:58:29;;;;;;;24.87;12.40;;;0.80;99.90;;;;;;5084765;28;20564;-76
2022/12/19 01:00:57;;;;;;;11.47;6.57;;;0.80;5.60;;;;;;5092082;28;20470;-75
2022/12/19 01:03:25;;;;;;;15.23;9.40;;;0.90;1.00;;;;;;5092160;28;20448;-76
2022/12/19 01:05:52;;;;;;;17.53;8.70;;;0.90;99.90;;;;;;5090364;28;20444;-71
2022/12/19 01:08:19;;;;;;;14.40;9.20;;;0.90;99.90;;;;;;5087394;28;20463;-75
2022/12/19 01:10:46;;;;;;;15.13;7.63;;;0.90;99.90;;;;;;5092738;28;20452;-77
2022/12/19 01:13:12;;;;;;;14.20;7.40;;;1.00;99.90;;;;;;5092027;28;20451;-76
2022/12/19 01:15:40;;;;;;;14.90;10.10;;;0.90;99.90;;;;;;5089067;28;20967;-76
2022/12/19 01:18:09;;;;;;;12.60;6.97;;;1.00;26.50;;;;;;5092261;28;20497;-77
2022/12/19 01:20:38;;;;;;;22.80;7.20;;;1.00;1.00;;;;;;5092384;28;20461;-77
2022/12/19 01:23:06;;;;;;;31.27;10.73;;;0.90;99.90;;;;;;5092370;28;20491;-77
2022/12/19 01:25:33;;;;;;;23.90;9.97;;;1.10;99.90;;;;;;5091707;28;20447;-76
2022/12/19 01:28:00;;;;;;;11.77;6.77;;;1.20;1.00;;;;;;5092092;28;20951;-77
2022/12/19 01:30:27;;;;;;;15.00;7.97;;;1.20;99.90;;;;;;5091996;28;20447;-76
2022/12/19 01:32:55;;;;;;;15.93;8.40;;;1.20;99.90;;;;;;5092180;28;20446;-75
2022/12/19 01:35:24;;;;;;;14.33;6.80;;;1.20;99.90;;;;;;5086644;28;20788;-76
2022/12/19 01:37:51;;;;;;;15.13;8.30;;;1.20;99.90;;;;;;5072231;28;20519;-76
2022/12/19 01:40:19;;;;;;;16.23;7.07;;;1.20;99.90;;;;;;5085540;28;20662;-76
2022/12/19 01:42:46;;;;;;;13.40;7.10;;;1.10;1.00;;;;;;5091040;28;20479;-76
2022/12/19 01:45:30;;;;;;;10.80;4.87;;;1.10;99.90;;;;;;5080316;28;20444;-76
2022/12/19 01:48:04;;;;;;;19.10;8.33;;;1.00;99.90;;;;;;5091935;28;20456;-76
2022/12/19 01:50:37;;;;;;;16.43;9.97;;;1.20;99.90;;;;;;5092152;28;20477;-76
2022/12/19 01:53:06;;;;;;;18.70;7.80;;;1.10;99.90;;;;;;5088393;28;20450;-76
2022/12/19 01:55:33;;;;;;;12.90;7.43;;;1.20;99.90;;;;;;5081512;28;20452;-76
2022/12/19 01:58:01;;;;;;;16.33;8.77;;;1.20;1.00;;;;;;5075232;28;20449;-76
2022/12/19 02:00:28;;;;;;;15.97;6.30;;;1.30;47.50;;;;;;5088214;28;20448;-76
2022/12/19 02:03:00;;;;;;;18.43;8.40;;;1.30;99.90;;;;;;5090761;28;20492;-75
2022/12/19 02:05:27;;;;;;;11.73;7.87;;;1.20;99.90;;;;;;5091717;28;20472;-75
2022/12/19 02:07:55;;;;;;;12.10;6.20;;;1.20;1.00;;;;;;5091274;28;20456;-75
2022/12/19 02:10:22;;;;;;;23.17;8.40;;;1.10;1.00;;;;;;5091857;28;20466;-76
2022/12/19 02:12:49;;;;;;;11.87;7.40;;;1.10;1.00;;;;;;5089901;28;20484;-70
2022/12/19 02:15:17;;;;;;;22.23;8.80;;;1.10;7.20;;;;;;5082994;28;20465;-76
2022/12/19 02:17:55;;;;;;;9.20;6.50;;;1.10;99.90;;;;;;5078710;28;20443;-76
2022/12/19 02:21:07;;;;;;;15.00;8.20;;;1.20;99.90;;;;;;5078356;28;20501;-76
2022/12/19 02:24:09;;;;;;;10.73;6.83;;;1.20;1.00;;;;;;5081494;28;20841;-75
2022/12/19 02:26:56;;;;;;;13.57;7.23;;;1.20;99.90;;;;;;5078950;28;20461;-76
2022/12/19 02:30:09;;;;;;;12.97;8.50;;;1.20;1.00;;;;;;5079706;28;20448;-76
2022/12/19 02:32:48;;;;;;;9.30;6.70;;;1.10;1.00;;;;;;5081182;28;20470;-76
2022/12/19 02:35:25;;;;;;;7.03;4.93;;;1.10;99.90;;;;;;5090276;28;20457;-76
2022/12/19 02:37:58;;;;;;;16.63;7.47;;;1.10;99.90;;;;;;5089517;28;20456;-71
2022/12/19 02:40:29;;;;;;;12.20;7.50;;;1.10;1.00;;;;;;5090462;28;20459;-76
2022/12/19 02:42:59;;;;;;;12.50;8.77;;;1.00;1.00;;;;;;5089921;28;20472;-74
2022/12/19 02:45:29;;;;;;;20.33;8.07;;;1.00;99.90;;;;;;5090011;28;20820;-74
2022/12/19 02:47:58;;;;;;;12.93;6.60;;;1.10;1.00;;;;;;5090568;28;20810;-73
2022/12/19 02:50:25;;;;;;;23.67;10.13;;;1.20;99.90;;;;;;5087510;28;20783;-76
2022/12/19 02:52:52;;;;;;;16.33;8.47;;;1.20;99.90;;;;;;5087301;28;20819;-75
2022/12/19 02:55:24;;;;;;;17.47;10.40;;;1.30;1.00;;;;;;5088008;28;20449;-73
2022/12/19 02:58:10;;;;;;;14.07;8.57;;;1.30;1.00;;;;;;5081105;28;20870;-70
2022/12/19 03:00:46;;;;;;;9.83;6.87;;;1.40;99.90;;;;;;5084309;28;20443;-76
2022/12/19 03:03:21;;;;;;;12.83;7.73;;;1.40;1.00;;;;;;5084963;28;21005;-76
2022/12/19 03:05:57;;;;;;;10.17;6.87;;;1.40;1.00;;;;;;5079255;28;20457;-75
2022/12/19 03:08:28;;;;;;;9.20;6.50;;;1.40;1.00;;;;;;5079618;28;20448;-76
2022/12/19 03:10:59;;;;;;;14.23;8.73;;;1.30;1.00;;;;;;5090401;28;20456;-76
2022/12/19 03:13:30;;;;;;;12.70;7.17;;;1.30;1.00;;;;;;5080272;28;20453;-74
2022/12/19 03:15:58;;;;;;;15.93;9.50;;;1.40;1.00;;;;;;5082851;28;20820;-76
2022/12/19 03:18:27;;;;;;;15.90;9.30;;;1.40;1.00;;;;;;5082335;28;20444;-77
2022/12/19 03:21:02;;;;;;;12.10;7.47;;;1.60;1.00;;;;;;5088932;28;20447;-71
2022/12/19 03:23:29;;;;;;;17.43;8.10;;;1.70;1.00;;;;;;5082110;28;20468;-76
2022/12/19 03:26:00;;;;;;;15.43;9.43;;;1.70;1.00;;;;;;5071490;28;20778;-75
2022/12/19 03:28:32;;;;;;;10.33;5.97;;;1.70;1.00;;;;;;5075494;28;20464;-76
2022/12/19 03:31:02;;;;;;;24.30;10.50;;;1.60;1.00;;;;;;5077898;28;20795;-76
2022/12/19 03:33:33;;;;;;;20.60;8.83;;;1.60;1.00;;;;;;5089629;28;20455;-76
2022/12/19 03:36:04;;;;;;;22.40;9.10;;;1.70;1.00;;;;;;5089077;28;20662;-77
2022/12/19 03:38:32;;;;;;;16.93;10.07;;;1.70;99.90;;;;;;5090431;28;20456;-77
2022/12/19 03:40:59;;;;;;;12.23;7.67;;;1.70;1.00;;;;;;5089433;28;20454;-76
2022/12/19 03:43:27;;;;;;;17.23;8.67;;;1.70;1.00;;;;;;5085061;28;20477;-75
2022/12/19 03:45:57;;;;;;;14.07;7.67;;;1.80;1.00;;;;;;5085050;28;20459;-76
2022/12/19 03:48:28;;;;;;;16.27;9.63;;;1.80;1.00;;;;;;5089897;28;20473;-75
2022/12/19 03:51:05;;;;;;;16.10;9.43;;;1.80;1.00;;;;;;5089542;28;20931;-75
2022/12/19 03:53:45;;;;;;;20.80;9.70;;;1.80;45.40;;;;;;5080984;28;20445;-77
2022/12/19 03:56:20;;;;;;;12.67;8.17;;;1.80;75.20;;;;;;5084517;28;20468;-77
2022/12/19 03:58:52;;;;;;;15.13;7.50;;;1.90;1.00;;;;;;5089669;28;20455;-76
2022/12/19 04:01:20;;;;;;;19.23;7.97;;;1.90;1.00;;;;;;5087918;28;20915;-73
2022/12/19 04:03:47;;;;;;;19.10;10.00;;;2.00;1.00;;;;;;5088193;28;20495;-77
2022/12/19 04:06:17;;;;;;;14.43;8.07;;;2.00;1.00;;;;;;5072717;28;20946;-77
2022/12/19 04:08:44;;;;;;;11.57;6.57;;;2.00;1.00;;;;;;5088431;28;20463;-77
2022/12/19 04:11:18;;;;;;;13.40;7.67;;;2.10;1.00;;;;;;5075875;28;20431;-76
2022/12/19 04:13:50;;;;;;;16.90;7.83;;;2.10;1.00;;;;;;5074671;28;20445;-77
2022/12/19 04:16:23;;;;;;;15.07;8.50;;;2.20;99.90;;;;;;5076096;28;20986;-77
2022/12/19 04:18:56;;;;;;;11.97;9.47;;;2.20;99.90;;;;;;5088907;28;20452;-71
2022/12/19 04:21:30;;;;;;;16.53;8.83;;;2.20;1.00;;;;;;5093720;28;21226;-76
2022/12/19 04:24:04;;;;;;;11.07;6.87;;;2.20;1.00;;;;;;5093389;28;20572;-76
2022/12/19 04:26:32;;;;;;;15.40;9.07;;;2.20;1.00;;;;;;5093819;28;20452;-77
2022/12/19 04:29:02;;;;;;;12.80;6.67;;;2.20;1.00;;;;;;5093224;28;20459;-77
2022/12/19 04:31:29;;;;;;;11.60;6.60;;;2.20;1.00;;;;;;5093620;28;20452;-76
2022/12/19 04:33:56;;;;;;;14.20;6.63;;;2.20;1.00;;;;;;5077393;28;20454;-75
2022/12/19 04:36:25;;;;;;;18.93;7.33;;;2.30;1.00;;;;;;5081711;28;20453;-76
2022/12/19 04:38:52;;;;;;;7.53;5.63;;;2.20;99.90;;;;;;5089554;28;20451;-76
2022/12/19 04:41:19;;;;;;;11.93;7.33;;;2.20;99.90;;;;;;5094028;28;20460;-73
2022/12/19 04:43:46;;;;;;;10.90;6.87;;;2.20;99.90;;;;;;5093313;28;20515;-76
2022/12/19 04:46:12;;;;;;;15.53;9.00;;;2.30;99.90;;;;;;5090830;28;20539;-75
2022/12/19 04:48:39;;;;;;;12.27;6.97;;;2.30;1.00;;;;;;5090548;28;21009;-77
2022/12/19 04:51:07;;;;;;;15.53;8.27;;;2.30;99.90;;;;;;5091892;28;20445;-76
2022/12/19 04:53:35;;;;;;;13.37;7.77;;;2.30;99.90;;;;;;5088959;28;20453;-76
2022/12/19 04:56:02;;;;;;;11.33;6.10;;;2.30;1.00;;;;;;5081991;28;20444;-76
2022/12/19 04:58:29;;;;;;;14.73;9.57;;;2.30;1.00;;;;;;5079659;28;20448;-76
2022/12/19 05:00:59;;;;;;;11.50;6.57;;;2.30;1.00;;;;;;5091370;28;20467;-73
2022/12/19 05:03:26;;;;;;;14.93;7.13;;;2.30;1.00;;;;;;5092508;28;20475;-75
2022/12/19 05:05:53;;;;;;;9.63;6.37;;;2.30;1.00;;;;;;5089579;28;20461;-69
2022/12/19 05:08:20;;;;;;;18.77;7.97;;;2.30;1.00;;;;;;5090461;28;20811;-75
2022/12/19 05:10:48;;;;;;;6.80;4.57;;;2.40;1.00;;;;;;5090797;28;20466;-74
2022/12/19 05:13:15;;;;;;;9.60;5.13;;;2.30;1.00;;;;;;5084978;28;20449;-76
2022/12/19 05:15:41;;;;;;;15.53;7.87;;;2.40;1.00;;;;;;5089190;28;20460;-74
2022/12/19 05:18:09;;;;;;;12.90;8.40;;;2.40;1.00;;;;;;5082888;28;21279;-76
2022/12/19 05:20:37;;;;;;;13.47;7.77;;;2.40;1.00;;;;;;5090276;28;20543;-76
2022/12/19 05:23:03;;;;;;;14.43;6.30;;;2.40;1.00;;;;;;5081764;28;20531;-75
2022/12/19 05:25:32;;;;;;;17.10;8.10;;;2.50;1.00;;;;;;5085379;28;20448;-76
2022/12/19 05:28:00;;;;;;;14.63;8.40;;;2.50;1.00;;;;;;5081828;28;20449;-76
2022/12/19 05:30:27;;;;;;;12.77;6.70;;;2.50;1.00;;;;;;5092393;28;20448;-76
2022/12/19 05:32:54;;;;;;;17.53;7.97;;;2.50;1.00;;;;;;5092002;28;20461;-75
2022/12/19 05:35:21;;;;;;;11.03;6.37;;;2.50;1.00;;;;;;5078865;28;20448;-76
2022/12/19 05:37:48;;;;;;;13.60;6.40;;;2.50;1.00;;;;;;5092550;28;20475;-76
2022/12/19 05:40:15;;;;;;;9.70;6.90;;;2.50;1.00;;;;;;5092770;28;20456;-76
2022/12/19 05:42:41;;;;;;;11.33;7.50;;;2.50;1.00;;;;;;5086723;28;20492;-75
2022/12/19 05:45:10;;;;;;;12.50;7.30;;;2.50;1.00;;;;;;5087727;28;20459;-75
2022/12/19 05:47:37;;;;;;;15.97;7.70;;;2.50;1.00;;;;;;5088813;28;20461;-76
2022/12/19 05:50:04;;;;;;;15.50;7.40;;;2.60;1.00;;;;;;5087584;28;20486;-76
2022/12/19 05:52:31;;;;;;;18.03;7.40;;;2.60;1.00;;;;;;5086601;28;20448;-76
2022/12/19 05:54:58;;;;;;;11.70;4.97;;;2.60;1.00;;;;;;5086688;28;20445;-76
2022/12/19 05:57:25;;;;;;;15.80;7.97;;;2.70;1.00;;;;;;5078984;28;20452;-76
2022/12/19 05:59:51;;;;;;;13.63;8.60;;;2.70;1.00;;;;;;5079178;28;20468;-76
2022/12/19 06:02:20;;;;;;;11.50;7.20;;;2.70;1.00;;;;;;5092554;28;20453;-77
2022/12/19 06:04:47;;;;;;;13.17;7.00;;;2.70;1.00;;;;;;5092185;28;20800;-77
2022/12/19 06:07:14;;;;;;;15.27;7.07;;;2.70;1.00;;;;;;5092164;28;20941;-75
2022/12/19 06:09:40;;;;;;;9.43;6.87;;;2.70;1.00;;;;;;5079046;28;20461;-76
2022/12/19 06:12:07;;;;;;;17.30;7.67;;;2.80;1.00;;;;;;5081112;28;20445;-75
2022/12/19 06:14:34;;;;;;;14.30;6.50;;;2.80;1.00;;;;;;5078010;28;20461;-75
2022/12/19 06:17:01;;;;;;;10.87;6.10;;;2.80;1.00;;;;;;5090120;28;20447;-73
2022/12/19 06:19:30;;;;;;;14.97;6.37;;;2.80;1.00;;;;;;5085235;28;20450;-75
2022/12/19 06:21:56;;;;;;;15.13;7.27;;;2.80;1.00;;;;;;5084299;28;20520;-76
2022/12/19 06:24:24;;;;;;;14.30;8.07;;;2.90;1.00;;;;;;5090422;28;20547;-75
2022/12/19 06:26:51;;;;;;;13.93;8.20;;;2.90;1.00;;;;;;5084375;28;20500;-77
2022/12/19 06:29:18;;;;;;;15.47;7.70;;;2.90;1.00;;;;;;5085983;28;20445;-78
2022/12/19 06:31:45;;;;;;;22.57;8.83;;;2.90;1.00;;;;;;5091039;28;20924;-78
2022/12/19 06:34:12;;;;;;;13.30;6.70;;;2.90;1.00;;;;;;5090944;28;20540;-76
2022/12/19 06:36:43;;;;;;;13.47;7.53;;;3.00;1.00;;;;;;5080349;28;20445;-75
2022/12/19 06:39:14;;;;;;;13.60;7.30;;;2.90;1.00;;;;;;5090892;28;20453;-75
2022/12/19 06:44:25;;;;;;;9.20;5.97;;;3.00;1.00;;;;;;5074117;28;20477;-74
2022/12/19 06:46:52;;;;;;;13.57;6.47;;;3.00;1.00;;;;;;5084549;28;20845;-76
2022/12/19 06:49:19;;;;;;;10.70;6.97;;;3.00;1.00;;;;;;5089623;28;20468;-74
2022/12/19 06:51:48;;;;;;;10.33;5.40;;;3.10;1.00;;;;;;5090818;28;20457;-77
2022/12/19 06:54:15;;;;;;;17.73;7.97;;;3.10;1.00;;;;;;5084442;28;20449;-75
2022/12/19 06:56:43;;;;;;;8.17;5.50;;;3.10;1.00;;;;;;5091317;28;20821;-74
2022/12/19 06:59:12;;;;;;;11.57;7.73;;;3.20;1.00;;;;;;5086946;28;20532;-75
2022/12/19 07:01:52;;;;;;;13.93;8.27;;;3.20;1.00;;;;;;5091150;28;20449;-74
2022/12/19 07:04:26;;;;;;;8.57;6.70;;;3.20;1.00;;;;;;5077219;28;20471;-73
2022/12/19 07:06:54;;;;;;;12.50;6.70;;;3.20;1.00;;;;;;5079968;28;20452;-73
2022/12/19 07:09:21;;;;;;;19.93;6.63;;;3.20;1.00;;;;;;5087739;28;20462;-74
2022/12/19 07:11:48;;;;;;;12.40;6.20;;;3.20;1.00;;;;;;5089091;28;20472;-74
2022/12/19 07:14:15;;;;;;;11.87;6.47;;;3.20;1.00;;;;;;5084703;28;20441;-73
2022/12/19 07:16:42;;;;;;;12.33;5.93;;;3.20;1.00;;;;;;5088944;28;20453;-73
2022/12/19 07:19:09;;;;;;;16.83;8.83;;;3.20;1.00;;;;;;5089967;28;20634;-73
2022/12/19 07:21:36;;;;;;;12.13;7.20;;;3.30;1.00;;;;;;5090621;28;20454;-74
2022/12/19 07:24:06;;;;;;;13.97;6.73;;;3.30;1.00;;;;;;5085847;28;20487;-73
2022/12/19 07:26:34;;;;;;;11.87;6.57;;;3.40;1.00;;;;;;5080945;28;20453;-73
2022/12/19 07:29:01;;;;;;;13.90;7.13;;;3.40;1.00;;;;;;5082662;28;20458;-77
2022/12/19 07:31:27;;;;;;;11.27;6.47;;;3.40;1.00;;;;;;5072325;28;20949;-77
2022/12/19 07:33:54;;;;;;;18.50;7.53;;;3.40;1.00;;;;;;5075596;28;20477;-77
2022/12/19 07:36:21;;;;;;;14.10;9.43;;;;;;;;;;5084972;28;20458;-74
2022/12/19 07:38:49;;;;;;;17.37;7.70;;;;;;;;;;5080048;28;20475;-73
2022/12/19 07:41:18;;;;;;;12.17;6.00;;;;;;;;;;5087601;28;20805;-75
2022/12/19 07:43:46;;;;;;;7.23;5.30;;;;;;;;;;5084951;28;21014;-75
2022/12/19 07:46:13;;;;;;;7.37;5.90;;;;;;;;;;5070706;28;20509;-75
2022/12/19 07:48:40;;;;;;;9.47;5.30;;;;;;;;;;5090047;28;20481;-76
2022/12/19 07:51:07;;;;;;;11.60;6.23;;;;;;;;;;5089291;28;20445;-75
2022/12/19 07:53:34;;;;;;;10.00;6.50;;;;;;;;;;5088023;28;20451;-75
2022/12/19 07:56:01;;;;;;;11.07;6.50;;;;;;;;;;5087883;28;20446;-75
2022/12/19 07:58:30;;;;;;;14.90;7.37;;;;;;;;;;5089485;28;20879;-74
2022/12/19 08:00:59;;;;;;;8.87;5.70;;;;;;;;;;5085889;28;20452;-76
2022/12/19 08:03:29;;;;;;;9.10;5.87;;;;;;;;;;5083118;28;20535;-73
2022/12/19 08:06:00;;;;;;;17.10;7.77;;;;;;;;;;5083423;28;20538;-75
2022/12/19 08:08:27;;;;;;;9.10;5.53;;;;;;;;;;5074047;28;20438;-75
2022/12/19 08:10:54;;;;;;;15.57;6.00;;;;;;;;;;5088399;28;20550;-75
2022/12/19 08:13:21;;;;;;;12.33;5.33;;;;;;;;;;5085001;28;20447;-76
2022/12/19 08:15:49;;;;;;;7.63;5.60;;;;;;;;;;5078390;28;20472;-75
2022/12/19 08:18:17;;;;;;;14.53;5.97;;;;;;;;;;5084006;28;20499;-77
2022/12/19 08:20:45;;;;;;;11.00;7.70;;;;;;;;;;5075555;28;20450;-77
2022/12/19 08:23:12;;;;;;;14.13;8.73;;;;;;;;;;5078043;28;20441;-77
2022/12/19 08:25:39;;;;;;;14.73;7.13;;;;;;;;;;5074893;28;20461;-77
2022/12/19 08:28:06;;;;;;;7.60;4.87;;;;;;;;;;5090057;28;20451;-75
2022/12/19 08:30:34;;;;;;;14.70;8.03;;;;;;;;;;5086640;28;20447;-76
2022/12/19 08:33:02;;;;;;;11.87;6.27;;;;;;;;;;5089788;28;20811;-77
2022/12/19 08:35:29;;;;;;;12.30;6.03;;;;;;;;;;5090107;28;20455;-76
2022/12/19 08:37:56;;;;;;;12.00;5.90;;;3.50;1.00;;;;;;5082109;28;20465;-76
2022/12/19 08:40:23;;;;;;;13.77;5.43;;;3.90;1.00;;;;;;5087034;28;20461;-75
2022/12/19 08:42:50;;;;;;;12.47;6.53;;;3.80;1.00;;;;;;5089769;28;20446;-74
2022/12/19 08:45:17;;;;;;;13.70;6.27;;;3.90;1.00;;;;;;5088687;28;20483;-74
2022/12/19 08:47:44;;;;;;;12.43;5.90;;;3.90;1.00;;;;;;5085529;28;20450;-75
2022/12/19 08:50:13;;;;;;;13.97;6.30;;;4.00;1.00;;;;;;5089369;28;20973;-74
2022/12/19 08:52:39;;;;;;;7.67;4.23;;;4.10;1.00;;;;;;5085300;28;20453;-75
2022/12/19 08:55:10;;;;;;;10.87;5.47;;;4.10;1.00;;;;;;5092321;28;20453;-74
2022/12/19 08:57:36;;;;;;;11.40;4.43;;;4.20;1.00;;;;;;5090960;28;20823;-75
2022/12/19 09:00:04;;;;;;;14.27;6.67;;;4.20;1.00;;;;;;5088608;28;20452;-75
2022/12/19 09:02:31;;;;;;;8.67;5.27;;;4.20;1.00;;;;;;5093765;28;20452;-75
2022/12/19 09:04:58;;;;;;;13.10;4.97;;;4.20;1.00;;;;;;5085612;28;20482;-73
2022/12/19 09:07:26;;;;;;;16.03;6.07;;;4.30;1.00;;;;;;5090694;28;20450;-75
2022/12/19 09:09:53;;;;;;;11.27;7.10;;;;;;;;;;5091130;28;20478;-73
2022/12/19 09:12:20;;;;;;;6.17;4.67;;;4.50;99.90;;;;;;5083965;28;20456;-76
2022/12/19 09:14:47;;;;;;;9.00;6.13;;;4.50;99.90;;;;;;5089845;28;20457;-76
2022/12/19 09:17:13;;;;;;;13.23;6.37;;;4.60;99.90;;;;;;5090563;28;20453;-76
2022/12/19 09:19:41;;;;;;;10.13;4.80;;;4.60;99.90;;;;;;5089205;28;20448;-75
2022/12/19 09:22:08;;;;;;;7.87;4.87;;;4.70;99.90;;;;;;5075310;28;20826;-79
2022/12/19 09:24:36;;;;;;;8.87;5.43;;;4.70;93.70;;;;;;5092520;28;20481;-76
2022/12/19 09:27:03;;;;;;;10.47;6.73;;;4.60;99.90;;;;;;5085660;28;20454;-78
2022/12/19 09:29:30;;;;;;;13.97;6.23;;;4.60;99.90;;;;;;5080235;28;20444;-77
2022/12/19 09:31:57;;;;;;;8.77;4.73;;;4.50;99.90;;;;;;5089016;28;20461;-76
2022/12/19 09:34:25;;;;;;;12.60;6.57;;;4.50;99.90;;;;;;5091387;28;20459;-77
2022/12/19 09:36:51;;;;;;;9.20;3.57;;;4.70;99.90;;;;;;5084751;28;20456;-75
2022/12/19 09:39:18;;;;;;;6.83;5.37;;;4.90;62.80;;;;;;5081361;28;20815;-77
2022/12/19 09:42:17;;;;;;;10.00;6.63;;;5.00;1.00;;;;;;5093499;28;20451;-77
2022/12/19 09:45:05;;;;;;;8.90;5.13;;;5.10;99.90;;;;;;5092787;28;20472;-74
2022/12/19 09:47:32;;;;;;;9.27;5.50;;;5.30;1.00;;;;;;5083186;28;20449;-77
2022/12/19 09:50:02;;;;;;;8.93;4.80;;;5.30;99.90;;;;;;5088289;28;20473;-76
2022/12/19 09:52:33;;;;;;;10.40;4.80;;;5.40;12.30;;;;;;5081902;28;20447;-77
2022/12/19 09:55:03;;;;;;;7.00;4.70;;;5.50;1.00;;;;;;5084361;28;20526;-77
2022/12/19 09:57:37;;;;;;;12.73;5.23;;;5.40;99.90;;;;;;5085216;28;20450;-76
2022/12/19 10:00:06;;;;;;;10.57;5.50;;;5.40;99.90;;;;;;5088282;28;20441;-77
2022/12/19 10:02:41;;;;;;;11.57;5.90;;;5.60;99.90;;;;;;5092436;28;20450;-76
2022/12/19 10:05:15;;;;;;;12.53;4.80;;;5.70;1.00;;;;;;5089736;28;20476;-77
2022/12/19 10:07:43;;;;;;;12.30;5.47;;;5.80;1.00;;;;;;5092533;28;20917;-77
2022/12/19 10:10:15;;;;;;;8.70;5.87;;;5.90;99.90;;;;;;5089880;28;21106;-79
2022/12/19 10:13:14;;;;;;;7.17;5.00;;;5.90;1.00;;;;;;5074713;28;20998;-78
2022/12/19 10:15:50;;;;;;;10.30;6.33;;;6.10;1.00;;;;;;5085009;28;20456;-78
2022/12/19 10:18:29;;;;;;;8.47;5.10;;;6.00;99.90;;;;;;5075240;28;20637;-77
2022/12/19 10:21:05;;;;;;;10.30;6.30;;;6.00;1.00;;;;;;5089325;28;20489;-75
2022/12/19 10:23:59;;;;;;;11.50;4.90;;;5.90;99.90;;;;;;5092167;28;20806;-78
2022/12/19 10:26:34;;;;;;;10.23;5.23;;;5.90;99.90;;;;;;5072727;28;20502;-78
2022/12/19 10:29:19;;;;;;;10.67;4.80;;;5.90;99.90;;;;;;5084508;28;20471;-77
2022/12/19 10:31:54;;;;;;;11.77;6.20;;;5.80;99.90;;;;;;5087542;28;20985;-78
2022/12/19 10:34:23;;;;;;;10.00;6.93;;;5.90;99.90;;;;;;5085556;28;20454;-76
2022/12/19 10:36:54;;;;;;;10.80;5.37;;;5.90;99.90;;;;;;5089696;28;20462;-72
2022/12/19 10:39:28;;;;;;;13.80;5.67;;;6.00;99.90;;;;;;5084229;28;20813;-76
2022/12/19 10:41:59;;;;;;;13.37;4.83;;;6.00;22.90;;;;;;5076655;28;20449;-72
2022/12/19 10:44:30;;;;;;;11.97;5.80;;;6.00;99.90;;;;;;5087974;28;20486;-76
2022/12/19 10:46:57;;;;;;;9.00;5.83;;;6.00;99.90;;;;;;5075319;28;20443;-77
2022/12/19 10:49:26;;;;;;;11.47;6.70;;;6.10;99.90;;;;;;5088588;28;20479;-76
2022/12/19 10:51:58;;;;;;;9.00;5.63;;;6.10;38.60;;;;;;5088596;28;20959;-78
2022/12/19 10:54:25;;;;;;;6.60;3.60;;;6.20;1.00;;;;;;5090209;28;20459;-78
2022/12/19 10:56:52;;;;;;;8.13;5.00;;;6.10;1.00;;;;;;5090319;28;20445;-76
2022/12/19 10:59:20;;;;;;;7.47;5.17;;;6.20;1.00;;;;;;5085740;28;20446;-76
2022/12/19 11:01:49;;;;;;;8.50;5.00;;;6.30;99.90;;;;;;5081113;28;20458;-78
2022/12/19 11:04:29;;;;;;;11.93;5.13;;;6.40;99.90;;;;;;5086079;28;20893;-76
2022/12/19 11:07:15;;;;;;;7.80;3.90;;;6.40;99.90;;;;;;5083787;28;20454;-77
2022/12/19 11:09:43;;;;;;;7.83;5.20;;;6.40;99.90;;;;;;5083014;28;20562;-78
2022/12/19 11:12:13;;;;;;;8.13;4.73;;;6.50;99.90;;;;;;5080131;28;20447;-77
2022/12/19 11:14:42;;;;;;;10.73;6.83;;;6.60;1.00;;;;;;5079116;28;20458;-77
2022/12/19 11:17:26;;;;;;;9.13;5.47;;;6.50;34.00;;;;;;5087803;28;20793;-77
2022/12/19 11:19:53;;;;;;;9.33;5.57;;;6.60;3.70;;;;;;5076045;28;21255;-72
2022/12/19 11:22:23;;;;;;;9.03;4.50;;;6.60;1.00;;;;;;5091958;28;20532;-73
2022/12/19 11:24:52;;;;;;;10.40;5.80;;;6.50;99.90;;;;;;5097845;28;20468;-71
2022/12/19 11:27:40;;;;;;;6.43;3.67;;;6.60;99.90;;;;;;5108603;28;20519;-72
2022/12/19 11:30:16;;;;;;;8.00;4.30;;;6.70;99.90;;;;;;5105564;28;20447;-76
2022/12/19 11:32:47;;;;;;;10.60;5.00;;;6.70;1.00;;;;;;5096074;28;20490;-77
2022/12/19 11:35:20;;;;;;;7.87;4.27;;;6.70;1.00;;;;;;5099439;28;20547;-75
2022/12/19 11:37:52;;;;;;;6.20;4.03;;;6.70;1.00;;;;;;5086053;28;20457;-78
2022/12/19 11:40:28;;;;;;;7.90;4.70;;;6.80;1.00;;;;;;5097295;28;20454;-76
2022/12/19 11:43:01;;;;;;;13.77;5.87;;;6.80;1.00;;;;;;5086657;28;20480;-77
2022/12/19 11:45:34;;;;;;;10.63;6.97;;;6.80;99.90;;;;;;5085395;28;20470;-78
2022/12/19 11:48:10;;;;;;;7.83;5.03;;;6.90;1.00;;;;;;5083917;28;20438;-77
2022/12/19 11:50:42;;;;;;;11.70;5.30;;;6.90;1.00;;;;;;5086693;28;20455;-79
2022/12/19 11:53:15;;;;;;;7.00;3.80;;;6.90;99.90;;;;;;5082786;28;20448;-77
2022/12/19 11:55:46;;;;;;;11.20;4.93;;;7.00;99.90;;;;;;5087646;28;20457;-77
2022/12/19 11:58:13;;;;;;;7.43;4.07;;;7.00;39.70;;;;;;5082974;28;20782;-77
2022/12/19 12:00:49;;;;;;;8.30;5.00;;;7.10;99.90;;;;;;5077870;28;20447;-78
2022/12/19 12:03:51;;;;;;;9.80;5.97;;;7.30;1.00;;;;;;5083602;28;20441;-78
2022/12/19 12:06:18;;;;;;;8.87;4.70;;;7.30;1.00;;;;;;5088503;28;20874;-77
2022/12/19 12:08:58;;;;;;;26.13;6.73;;;7.30;1.00;;;;;;5088146;28;20475;-76
2022/12/19 12:11:33;;;;;;;8.70;4.63;;;7.30;1.00;;;;;;5075482;28;20462;-76
2022/12/19 12:14:14;;;;;;;7.03;4.20;;;7.40;35.30;;;;;;5075553;28;20448;-77
2022/12/19 12:17:00;;;;;;;9.30;5.30;;;7.40;40.60;;;;;;5069512;28;20878;-78
2022/12/19 12:19:41;;;;;;;8.63;5.23;;;7.40;63.40;;;;;;5082836;28;20455;-76
2022/12/19 12:22:18;;;;;;;11.43;5.93;;;7.40;99.90;;;;;;5086036;28;20972;-76
2022/12/19 12:24:53;;;;;;;6.33;4.87;;;7.30;99.90;;;;;;5078731;28;20475;-76
2022/12/19 12:27:36;;;;;;;9.50;4.60;;;7.40;99.90;;;;;;5077351;28;20963;-75
2022/12/19 12:30:09;;;;;;;12.87;4.50;;;7.40;99.90;;;;;;5083680;28;20452;-77
2022/12/19 12:32:52;;;;;;;6.37;4.20;;;7.50;99.90;;;;;;5091460;28;21254;-78
2022/12/19 12:35:33;;;;;;;16.53;4.77;;;7.50;99.90;;;;;;5092725;28;20825;-75
2022/12/19 12:38:09;;;;;;;5.33;4.13;;;7.50;99.90;;;;;;5082781;28;20789;-78
2022/12/19 12:40:58;;;;;;;9.33;5.20;;;7.50;99.90;;;;;;5090182;28;20463;-78
2022/12/19 12:43:39;;;;;;;10.37;5.40;;;7.60;99.90;;;;;;5082741;28;20453;-76
2022/12/19 12:46:12;;;;;;;10.80;5.33;;;7.70;44.80;;;;;;5083002;28;20471;-77
2022/12/19 12:48:46;;;;;;;6.37;4.13;;;7.60;95.10;;;;;;5091532;28;20824;-78
2022/12/19 12:51:17;;;;;;;8.37;5.10;;;7.70;99.90;;;;;;5090325;28;20451;-77
2022/12/19 12:53:46;;;;;;;6.30;4.43;;;7.70;99.90;;;;;;5090682;28;20466;-77
2022/12/19 12:56:18;;;;;;;8.43;4.47;;;7.70;99.90;;;;;;5091692;28;20632;-78
2022/12/19 12:59:06;;;;;;;9.80;5.67;;;7.80;99.90;;;;;;5086021;28;20455;-77
2022/12/19 13:01:39;;;;;;;5.87;3.23;;;7.80;99.90;;;;;;5084270;28;20539;-78
2022/12/19 13:04:19;;;;;;;6.77;3.83;;;7.90;1.00;;;;;;5090579;28;20461;-79
2022/12/19 13:09:45;;;;;;;7.40;3.57;;;8.00;1.00;;;;;;5105407;27;20622;-76
2022/12/19 13:15:39;;;;;;;9.53;4.80;;;7.90;1.00;;;;;;5094523;28;20435;-75
2022/12/19 13:18:28;;;;;;;7.57;4.53;;;7.80;1.00;;;;;;5062939;28;20454;-76
2022/12/19 13:20:55;;;;;;;4.97;4.10;;;7.80;62.60;;;;;;5082668;28;20550;-75
2022/12/19 13:23:52;;;;;;;9.50;5.17;;;7.80;99.90;;;;;;5082049;28;20963;-76
2022/12/19 13:26:43;;;;;;;7.97;4.13;;;7.80;99.90;;;;;;5094477;28;20496;-76
2022/12/19 13:29:52;;;;;;;11.27;5.40;;;7.80;99.90;;;;;;5096222;28;20493;-73
2022/12/19 13:32:21;;;;;;;13.93;4.57;;;7.90;46.60;;;;;;5083589;28;20560;-71